Terminal Aerodrome Forecast
Issued by NWS Sioux Falls, SD

Home | Current Version | Previous Version | Text Only | Print | Product List | Glossary Off
Versions: 1 2 3 4 5 6 7 8 9 10 11 12 13 14 15 16 17

000
FTUS43 KFSD 190600 RRA
TAFHON
TAF
KHON 190612Z 1906/2006 29005KT P6SM SKC
     FM191800 VRB04KT P6SM FEW060
     FM200200 15006KT P6SM SCT200=

USA.gov is the U.S. government's official web portal to all federal, state and local government web resources and services.